Time;durP1;ratioP1;P1;durP2;ratioP2;P2;SDS_P1;SDS_P2;PMS_P1;PMS_P2;Temp;Humidity;BMP_temperature;BMP_pressure;BME280_temperature;BME280_humidity;BME280_pressure;Samples;Min_cycle;Max_cycle;Signal;HPM_P1;HPM_P2
2023/07/19 00:01:54;;;;;;;5.33;2.20;;;;;;;;;;5038491;28;20184;-88
2023/07/19 00:04:22;;;;;;;3.70;2.30;;;;;;;;;;5066064;28;20277;-88
2023/07/19 00:06:48;;;;;;;5.53;2.27;;;;;;;;;;5059956;28;20183;-87
2023/07/19 00:09:14;;;;;;;4.13;2.10;;;;;;;;;;5058728;28;20175;-87
2023/07/19 00:11:40;;;;;;;5.63;2.30;;;;;;;;;;5058170;28;20198;-87
2023/07/19 00:14:07;;;;;;;7.13;2.20;;;;;;;;;;5058652;28;20183;-87
2023/07/19 00:16:33;;;;;;;5.00;2.33;;;;;;;;;;5058374;28;20194;-87
2023/07/19 00:19:02;;;;;;;3.73;2.17;;;;;;;;;;5057988;28;20217;-87
2023/07/19 00:21:28;;;;;;;5.93;2.53;;;;;;;;;;5058041;28;20313;-87
2023/07/19 00:23:54;;;;;;;4.47;2.10;;;;;;;;;;5047641;28;20231;-88
2023/07/19 00:26:20;;;;;;;5.43;2.10;;;;;;;;;;5038373;28;20172;-87
2023/07/19 00:28:46;;;;;;;4.83;2.27;;;;;;;;;;5022257;28;20203;-87
2023/07/19 00:31:12;;;;;;;4.77;2.23;;;;;;;;;;5038155;28;20202;-87
2023/07/19 00:33:38;;;;;;;3.53;2.23;;;;;;;;;;5045610;28;20186;-86
2023/07/19 00:36:04;;;;;;;6.10;2.00;;;;;;;;;;5058531;28;20266;-87
2023/07/19 00:38:33;;;;;;;6.20;2.13;;;;;;;;;;5057996;28;20298;-88
2023/07/19 00:40:59;;;;;;;6.37;2.10;;;;;;;;;;5058149;28;20213;-87
2023/07/19 00:43:25;;;;;;;3.43;2.20;;;;;;;;;;5046227;28;20178;-86
2023/07/19 00:45:56;;;;;;;3.17;2.20;;;;;;;;;;5067166;28;20179;-87
2023/07/19 00:48:23;;;;;;;4.83;2.20;;;;;;;;;;5058008;28;20183;-87
2023/07/19 00:50:49;;;;;;;4.60;1.93;;;;;;;;;;5057790;28;20186;-87
2023/07/19 00:53:19;;;;;;;2.83;2.00;;;;;;;;;;5072005;28;20179;-87
2023/07/19 00:55:51;;;;;;;3.70;2.20;;;;;;;;;;5087746;28;20208;-87
2023/07/19 00:58:25;;;;;;;4.77;2.47;;;;;;;;;;5090546;28;20206;-88
2023/07/19 01:00:52;;;;;;;4.67;2.23;;;;;;;;;;5082950;28;20216;-87
2023/07/19 01:03:19;;;;;;;2.70;1.97;;;;;;;;;;5076596;28;20201;-87
2023/07/19 01:05:45;;;;;;;3.60;2.40;;;;;;;;;;5077701;28;20171;-87
2023/07/19 01:08:11;;;;;;;3.37;2.10;;;;;;;;;;5058632;28;20183;-88
2023/07/19 01:10:37;;;;;;;5.73;2.30;;;;;;;;;;5037679;28;20267;-88
2023/07/19 01:13:08;;;;;;;4.80;2.50;;;;;;;;;;5059715;28;20175;-87
2023/07/19 01:15:34;;;;;;;3.30;2.10;;;;;;;;;;5077347;28;20205;-87
2023/07/19 01:18:00;;;;;;;5.33;2.10;;;;;;;;;;5077321;28;20202;-87
2023/07/19 01:20:26;;;;;;;4.63;2.47;;;;;;;;;;5077533;28;20174;-87
2023/07/19 01:22:53;;;;;;;4.07;2.40;;;;;;;;;;5057647;28;20223;-88
2023/07/19 01:25:19;;;;;;;3.37;2.30;;;;;;;;;;5036663;28;20180;-87
2023/07/19 01:27:45;;;;;;;3.40;2.20;;;;;;;;;;5037205;28;20200;-87
2023/07/19 01:30:11;;;;;;;6.67;2.40;;;;;;;;;;5036694;28;20176;-87
2023/07/19 01:32:37;;;;;;;3.70;2.10;;;;;;;;;;5040367;28;20184;-87
2023/07/19 01:35:06;;;;;;;6.33;2.30;;;;;;;;;;5020577;28;20209;-87
2023/07/19 01:37:32;;;;;;;5.60;1.97;;;;;;;;;;5037124;28;20215;-87
2023/07/19 01:40:00;;;;;;;3.50;2.33;;;;;;;;;;5060940;28;20183;-87
2023/07/19 01:42:26;;;;;;;4.13;2.67;;;;;;;;;;5065904;28;20262;-87
2023/07/19 01:44:52;;;;;;;4.27;2.40;;;;;;;;;;5036764;28;20183;-88
2023/07/19 01:47:18;;;;;;;3.90;2.63;;;;;;;;;;5036663;28;20222;-87
2023/07/19 01:49:44;;;;;;;4.53;2.53;;;;;;;;;;5020341;28;20314;-87
2023/07/19 01:52:13;;;;;;;6.23;2.57;;;;;;;;;;5039178;28;20221;-86
2023/07/19 01:54:39;;;;;;;4.53;2.50;;;;;;;;;;5056403;28;20210;-87
2023/07/19 01:57:05;;;;;;;2.53;2.23;;;;;;;;;;5056660;28;20183;-88
2023/07/19 01:59:34;;;;;;;3.53;1.93;;;;;;;;;;5057066;28;20175;-89
2023/07/19 02:02:00;;;;;;;3.50;2.20;;;;;;;;;;5057346;28;20175;-89
2023/07/19 02:04:27;;;;;;;2.50;2.13;;;;;;;;;;5076857;28;20177;-89
2023/07/19 02:06:55;;;;;;;4.63;2.50;;;;;;;;;;5077197;28;20166;-91
2023/07/19 02:09:22;;;;;;;4.07;2.10;;;;;;;;;;5059979;28;20190;-89
2023/07/19 02:11:48;;;;;;;6.90;2.43;;;;;;;;;;5076956;28;20185;-89
2023/07/19 02:14:21;;;;;;;5.10;2.37;;;;;;;;;;5057996;28;20273;-88
2023/07/19 02:16:53;;;;;;;2.47;2.10;;;;;;;;;;5039343;28;20179;-88
2023/07/19 02:19:19;;;;;;;5.20;2.33;;;;;;;;;;5056089;28;20263;-87
2023/07/19 02:21:45;;;;;;;5.03;2.40;;;;;;;;;;5056596;28;20228;-87
2023/07/19 02:24:11;;;;;;;3.03;2.27;;;;;;;;;;5038341;28;20234;-88
2023/07/19 02:26:40;;;;;;;5.27;2.50;;;;;;;;;;5036374;28;20176;-88
2023/07/19 02:29:06;;;;;;;4.53;2.33;;;;;;;;;;5036337;28;20210;-87
2023/07/19 02:31:33;;;;;;;3.03;2.23;;;;;;;;;;5036322;28;20187;-88
2023/07/19 02:33:59;;;;;;;3.03;2.20;;;;;;;;;;5039440;28;20195;-87
2023/07/19 02:36:25;;;;;;;7.10;2.43;;;;;;;;;;5036258;28;20234;-87
2023/07/19 02:38:51;;;;;;;2.93;2.27;;;;;;;;;;5035902;28;20211;-87
2023/07/19 02:41:17;;;;;;;3.80;2.07;;;;;;;;;;5036193;28;20172;-87
2023/07/19 02:43:47;;;;;;;4.10;2.60;;;;;;;;;;5063337;28;20253;-87
2023/07/19 02:46:13;;;;;;;3.13;2.40;;;;;;;;;;5075879;28;20172;-88
2023/07/19 02:48:39;;;;;;;6.03;2.60;;;;;;;;;;5076330;28;20186;-87
2023/07/19 02:51:07;;;;;;;3.07;2.10;;;;;;;;;;5076362;28;20178;-87
2023/07/19 02:53:33;;;;;;;4.63;2.80;;;;;;;;;;5051983;28;20180;-88
2023/07/19 02:55:59;;;;;;;3.30;2.63;;;;;;;;;;5036090;28;20179;-87
2023/07/19 02:58:27;;;;;;;5.33;2.60;;;;;;;;;;5035852;28;20208;-88
2023/07/19 03:00:53;;;;;;;3.67;2.30;;;;;;;;;;5035729;28;20180;-87
2023/07/19 03:03:20;;;;;;;6.53;2.40;;;;;;;;;;5046053;28;20188;-89
2023/07/19 03:05:46;;;;;;;4.33;2.60;;;;;;;;;;5056226;28;20183;-88
2023/07/19 03:08:12;;;;;;;7.37;2.60;;;;;;;;;;5055885;28;20179;-86
2023/07/19 03:10:40;;;;;;;4.57;2.73;;;;;;;;;;5056782;28;20262;-86
2023/07/19 03:13:07;;;;;;;3.70;2.60;;;;;;;;;;5059850;28;20192;-86
2023/07/19 03:15:34;;;;;;;4.63;2.47;;;;;;;;;;5035713;28;20184;-86
2023/07/19 03:18:03;;;;;;;3.63;2.70;;;;;;;;;;5035924;28;20234;-86
2023/07/19 03:20:29;;;;;;;4.37;2.60;;;;;;;;;;5035957;28;20179;-87
2023/07/19 03:23:00;;;;;;;3.00;2.53;;;;;;;;;;5049718;28;20228;-87
2023/07/19 03:25:28;;;;;;;6.00;2.53;;;;;;;;;;5036252;28;20176;-86
2023/07/19 03:27:54;;;;;;;4.60;2.70;;;;;;;;;;5047721;28;20210;-87
2023/07/19 03:30:23;;;;;;;3.53;2.60;;;;;;;;;;5062605;28;20193;-87
2023/07/19 03:32:49;;;;;;;4.07;2.63;;;;;;;;;;5068839;28;20184;-87
2023/07/19 03:35:15;;;;;;;4.53;2.40;;;;;;;;;;5022939;28;20258;-87
2023/07/19 03:37:44;;;;;;;5.03;2.40;;;;;;;;;;5038952;28;20200;-87
2023/07/19 03:40:13;;;;;;;5.47;2.60;;;;;;;;;;5039222;28;20187;-86
2023/07/19 03:42:42;;;;;;;4.53;2.60;;;;;;;;;;5042360;28;20183;-87
2023/07/19 03:45:08;;;;;;;5.87;2.60;;;;;;;;;;5058849;28;20176;-87
2023/07/19 03:47:34;;;;;;;4.07;2.60;;;;;;;;;;5059158;28;20205;-87
2023/07/19 03:50:00;;;;;;;3.37;2.90;;;;;;;;;;5042891;28;20191;-87
2023/07/19 03:52:27;;;;;;;5.67;2.60;;;;;;;;;;5057071;28;20237;-87
2023/07/19 03:54:54;;;;;;;5.20;3.13;;;;;;;;;;5022443;28;20195;-87
2023/07/19 03:57:20;;;;;;;4.87;2.80;;;;;;;;;;5038350;28;20180;-86
2023/07/19 03:59:49;;;;;;;4.87;2.90;;;;;;;;;;5038262;28;20179;-87
2023/07/19 04:02:15;;;;;;;4.83;2.70;;;;;;;;;;5022344;28;20188;-87
2023/07/19 04:04:41;;;;;;;6.43;2.60;;;;;;;;;;5057582;28;20180;-86
2023/07/19 04:07:07;;;;;;;6.13;2.80;;;;;;;;;;5058201;28;20179;-86
2023/07/19 04:09:33;;;;;;;4.40;2.70;;;;;;;;;;5058871;28;20225;-86
2023/07/19 04:12:00;;;;;;;7.37;2.80;;;;;;;;;;5058748;28;20175;-87
2023/07/19 04:14:26;;;;;;;5.10;2.60;;;;;;;;;;5059184;28;20182;-87
2023/07/19 04:16:52;;;;;;;4.90;2.83;;;;;;;;;;5069466;28;20172;-88
2023/07/19 04:19:21;;;;;;;4.43;2.80;;;;;;;;;;5058418;28;20207;-87
2023/07/19 04:21:47;;;;;;;4.00;2.63;;;;;;;;;;5070491;28;20182;-87
2023/07/19 04:24:13;;;;;;;4.77;2.90;;;;;;;;;;5047056;28;20223;-86
2023/07/19 04:26:39;;;;;;;3.43;2.60;;;;;;;;;;5021949;28;20187;-85
2023/07/19 04:29:05;;;;;;;4.97;2.83;;;;;;;;;;5022093;28;20240;-85
2023/07/19 04:31:31;;;;;;;3.00;2.60;;;;;;;;;;5039476;28;20195;-85
2023/07/19 04:33:57;;;;;;;4.20;3.10;;;;;;;;;;5047288;28;20200;-85
2023/07/19 04:36:23;;;;;;;3.60;2.60;;;;;;;;;;5050430;28;20191;-85
2023/07/19 04:38:49;;;;;;;4.63;2.90;;;;;;;;;;5020171;28;20435;-87
2023/07/19 04:41:15;;;;;;;6.77;2.80;;;;;;;;;;5022063;28;20176;-86
2023/07/19 04:43:41;;;;;;;4.97;2.70;;;;;;;;;;5021860;28;20206;-87
2023/07/19 04:46:07;;;;;;;5.00;3.00;;;;;;;;;;5045561;28;20183;-86
2023/07/19 04:48:36;;;;;;;7.07;2.87;;;;;;;;;;5061572;28;20203;-87
2023/07/19 04:51:02;;;;;;;5.80;2.87;;;;;;;;;;5065247;28;20233;-86
2023/07/19 04:53:28;;;;;;;5.17;2.93;;;;;;;;;;5053435;28;20172;-87
2023/07/19 04:55:55;;;;;;;5.17;3.53;;;;;;;;;;5043518;28;20262;-87
2023/07/19 04:58:21;;;;;;;6.60;3.40;;;;;;;;;;5040979;28;20211;-86
2023/07/19 05:00:47;;;;;;;7.23;3.40;;;;;;;;;;5057541;28;20179;-86
2023/07/19 05:03:13;;;;;;;8.10;4.63;;;;;;;;;;5040955;28;20183;-87
2023/07/19 05:05:39;;;;;;;9.30;3.47;;;;;;;;;;5057761;28;20206;-87
2023/07/19 05:08:06;;;;;;;5.03;3.30;;;;;;;;;;5040866;28;20187;-87
2023/07/19 05:10:32;;;;;;;7.93;3.57;;;;;;;;;;5057258;28;20187;-86
2023/07/19 05:12:58;;;;;;;7.67;3.53;;;;;;;;;;5040606;28;20183;-86
2023/07/19 05:15:24;;;;;;;5.90;3.20;;;;;;;;;;5056513;28;20183;-85
2023/07/19 05:17:50;;;;;;;4.73;3.27;;;;;;;;;;5037391;28;20203;-86
2023/07/19 05:20:16;;;;;;;8.07;3.50;;;;;;;;;;5056973;28;20180;-86
2023/07/19 05:22:43;;;;;;;6.87;3.97;;;;;;;;;;5040366;28;20393;-85
2023/07/19 05:25:09;;;;;;;7.77;3.80;;;;;;;;;;5040875;28;20191;-86
2023/07/19 05:27:38;;;;;;;7.07;3.57;;;;;;;;;;5056776;28;20203;-86
2023/07/19 05:30:04;;;;;;;6.73;4.50;;;;;;;;;;5057023;28;20179;-86
2023/07/19 05:32:31;;;;;;;7.97;3.93;;;;;;;;;;5056963;28;20194;-85
2023/07/19 05:34:59;;;;;;;6.13;4.00;;;;;;;;;;5056970;28;20277;-85
2023/07/19 05:37:25;;;;;;;8.30;4.10;;;;;;;;;;5056645;28;20179;-86
2023/07/19 05:39:51;;;;;;;8.07;3.53;;;;;;;;;;5056719;28;20176;-85
2023/07/19 05:42:17;;;;;;;6.77;4.00;;;;;;;;;;5057121;28;20180;-85
2023/07/19 05:44:43;;;;;;;8.43;4.23;;;;;;;;;;5059483;28;20186;-85
2023/07/19 05:47:09;;;;;;;11.73;3.93;;;;;;;;;;5067854;28;20191;-86
2023/07/19 05:49:35;;;;;;;6.63;3.67;;;;;;;;;;5060891;28;20320;-86
2023/07/19 05:52:02;;;;;;;8.23;4.13;;;;;;;;;;5070543;28;20179;-85
2023/07/19 05:54:30;;;;;;;6.00;3.90;;;;;;;;;;5065876;28;20205;-86
2023/07/19 05:56:56;;;;;;;6.90;4.27;;;;;;;;;;5063020;28;20180;-86
2023/07/19 05:59:22;;;;;;;6.80;3.70;;;;;;;;;;5055207;28;20215;-85
2023/07/19 06:01:48;;;;;;;10.80;4.00;;;;;;;;;;5056013;28;20266;-84
2023/07/19 06:04:14;;;;;;;6.97;4.00;;;;;;;;;;5055702;28;20181;-84
2023/07/19 06:06:40;;;;;;;7.57;3.97;;;;;;;;;;5065727;28;20171;-84
2023/07/19 06:09:08;;;;;;;9.73;4.47;;;;;;;;;;5054498;28;20183;-84
2023/07/19 06:11:36;;;;;;;7.80;3.70;;;;;;;;;;5019530;28;20191;-85
2023/07/19 06:14:03;;;;;;;9.97;4.40;;;;;;;;;;5035833;28;20183;-85
2023/07/19 06:16:29;;;;;;;6.87;4.17;;;;;;;;;;5036058;28;20270;-85
2023/07/19 06:18:55;;;;;;;8.53;4.67;;;;;;;;;;5030571;28;20207;-85
2023/07/19 06:21:22;;;;;;;6.70;4.50;;;;;;;;;;5056117;28;20183;-84
2023/07/19 06:23:48;;;;;;;7.43;4.50;;;;;;;;;;5046849;28;20223;-85
2023/07/19 06:26:14;;;;;;;9.40;4.73;;;;;;;;;;5055309;28;20221;-84
2023/07/19 06:28:40;;;;;;;7.50;4.40;;;;;;;;;;5033570;28;20236;-84
2023/07/19 06:31:06;;;;;;;7.13;4.50;;;;;;;;;;5030993;28;20203;-84
2023/07/19 06:33:32;;;;;;;11.37;4.60;;;;;;;;;;5036345;28;20258;-84
2023/07/19 06:35:58;;;;;;;9.65;3.83;;;;;;;;;;5035880;28;20436;-84
2023/07/19 06:38:28;;;;;;;7.33;4.20;;;;;;;;;;5019066;28;20223;-84
2023/07/19 06:40:54;;;;;;;11.93;4.50;;;;;;;;;;5051159;28;20196;-83
2023/07/19 06:43:20;;;;;;;12.93;4.30;;;;;;;;;;5052799;28;20196;-84
2023/07/19 06:45:46;;;;;;;141.63;11.03;;;;;;;;;;5019375;28;20184;-83
2023/07/19 06:48:12;;;;;;;544.97;36.13;;;;;;;;;;5037730;28;20191;-84
2023/07/19 06:50:38;;;;;;;130.07;13.40;;;;;;;;;;5039649;28;20192;-84
2023/07/19 06:53:04;;;;;;;34.30;5.70;;;;;;;;;;5040910;28;20267;-83
2023/07/19 06:55:30;;;;;;;9.53;3.60;;;;;;;;;;5027160;28;20187;-83
2023/07/19 06:57:56;;;;;;;154.90;12.90;;;;;;;;;;5031991;28;20200;-83
2023/07/19 07:00:22;;;;;;;33.07;4.37;;;;;;;;;;5038561;28;20182;-84
2023/07/19 07:02:48;;;;;;;15.93;3.80;;;;;;;;;;5029601;28;20176;-84
2023/07/19 07:05:15;;;;;;;10.80;3.10;;;;;;;;;;5023196;28;20234;-84
2023/07/19 07:07:41;;;;;;;6.93;3.03;;;;;;;;;;5039992;28;20211;-84
2023/07/19 07:10:09;;;;;;;6.37;3.67;;;;;;;;;;5040317;28;20237;-84
2023/07/19 07:12:36;;;;;;;6.27;3.40;;;;;;;;;;5040879;28;20191;-84
2023/07/19 07:15:02;;;;;;;23.03;3.80;;;;;;;;;;5051543;28;20253;-84
2023/07/19 07:17:28;;;;;;;9.53;3.63;;;;;;;;;;5042522;28;20179;-84
2023/07/19 07:19:54;;;;;;;7.18;3.38;;;;;;;;;;5057399;28;20440;-83
2023/07/19 07:22:21;;;;;;;10.07;3.30;;;;;;;;;;5033456;28;20175;-86
2023/07/19 07:24:47;;;;;;;9.80;3.93;;;;;;;;;;5040450;28;20219;-84
2023/07/19 07:27:13;;;;;;;5.90;3.53;;;;;;;;;;5028640;28;20183;-85
2023/07/19 07:29:41;;;;;;;8.87;4.20;;;;;;;;;;5039684;28;20184;-85
2023/07/19 07:32:08;;;;;;;9.97;4.23;;;;;;;;;;5054865;28;20179;-85
2023/07/19 07:34:34;;;;;;;8.53;3.80;;;;;;;;;;5035399;28;20188;-86
2023/07/19 07:37:00;;;;;;;5.90;2.90;;;;;;;;;;5040108;28;20187;-85
2023/07/19 07:39:26;;;;;;;8.07;3.60;;;;;;;;;;5046661;28;20206;-85
2023/07/19 07:41:52;;;;;;;5.20;3.37;;;;;;;;;;5042760;28;20190;-85
2023/07/19 07:44:18;;;;;;;6.53;3.20;;;;;;;;;;5053500;28;20180;-85
2023/07/19 07:46:44;;;;;;;5.03;3.33;;;;;;;;;;5039404;28;20230;-84
2023/07/19 07:49:11;;;;;;;6.23;3.43;;;;;;;;;;5050880;28;20198;-85
2023/07/19 07:51:37;;;;;;;5.97;3.37;;;;;;;;;;5026657;28;20197;-85
2023/07/19 07:54:03;;;;;;;6.20;3.50;;;;;;;;;;5042420;28;20224;-85
2023/07/19 07:56:30;;;;;;;7.27;3.80;;;;;;;;;;5076688;28;20182;-85
2023/07/19 07:58:56;;;;;;;9.17;3.97;;;;;;;;;;5052405;28;20263;-85
2023/07/19 08:01:22;;;;;;;6.93;3.60;;;;;;;;;;5060761;28;20175;-84
2023/07/19 08:03:48;;;;;;;5.77;3.80;;;;;;;;;;5054843;28;20214;-84
2023/07/19 08:06:14;;;;;;;7.70;3.57;;;;;;;;;;5035080;28;20187;-84
2023/07/19 08:08:40;;;;;;;6.83;4.20;;;;;;;;;;5041753;28;20222;-84
2023/07/19 08:11:06;;;;;;;11.10;4.10;;;;;;;;;;5078089;28;20291;-84
2023/07/19 08:13:33;;;;;;;8.83;3.63;;;;;;;;;;5043241;28;20196;-86
2023/07/19 08:15:59;;;;;;;9.63;4.03;;;;;;;;;;5022106;28;20187;-86
2023/07/19 08:18:25;;;;;;;9.70;4.20;;;;;;;;;;5046718;28;20221;-85
2023/07/19 08:20:52;;;;;;;8.87;4.10;;;;;;;;;;5059160;28;20254;-83
2023/07/19 08:23:19;;;;;;;10.32;3.90;;;;;;;;;;5041436;28;20273;-83
2023/07/19 08:25:45;;;;;;;10.20;3.90;;;;;;;;;;5041697;28;20205;-83
2023/07/19 08:28:11;;;;;;;5.78;3.55;;;;;;;;;;5062574;28;20203;-83
2023/07/19 08:30:37;;;;;;;5.63;3.15;;;;;;;;;;5021601;28;20188;-83
2023/07/19 08:33:08;;;;;;;6.10;3.28;;;;;;;;;;5044723;28;20187;-84
2023/07/19 08:35:34;;;;;;;8.70;3.50;;;;;;;;;;5031292;28;20194;-85
2023/07/19 08:38:00;;;;;;;10.32;3.80;;;;;;;;;;5049676;28;20208;-83
2023/07/19 08:40:29;;;;;;;10.25;4.18;;;;;;;;;;5060801;28;20213;-83
2023/07/19 08:42:55;;;;;;;7.03;3.78;;;;;;;;;;5061471;28;20183;-84
2023/07/19 08:45:23;;;;;;;7.03;3.58;;;;;;;;;;5057368;28;20270;-83
2023/07/19 08:47:49;;;;;;;6.07;3.50;;;;;;;;;;5026068;28;20198;-84
2023/07/19 08:50:16;;;;;;;7.90;4.13;;;;;;;;;;5035180;28;20187;-84
2023/07/19 08:52:42;;;;;;;10.65;4.85;;;;;;;;;;5052311;28;20183;-86
2023/07/19 08:55:08;;;;;;;9.23;4.18;;;;;;;;;;5057293;28;20175;-84
2023/07/19 08:57:39;;;;;;;8.63;4.10;;;;;;;;;;5030793;28;20188;-83
2023/07/19 09:00:07;;;;;;;10.57;3.80;;;;;;;;;;5048060;28;20184;-83
2023/07/19 09:02:33;;;;;;;6.80;3.28;;;;;;;;;;5022237;28;20187;-84
2023/07/19 09:05:06;;;;;;;9.40;3.72;;;;;;;;;;5037383;28;20176;-83
2023/07/19 09:07:33;;;;;;;8.57;3.65;;;;;;;;;;5028343;28;20179;-83
2023/07/19 09:09:59;;;;;;;7.68;3.30;;;;;;;;;;5056262;28;20183;-84
2023/07/19 09:12:25;;;;;;;9.05;3.50;;;;;;;;;;5056207;28;20195;-84
2023/07/19 09:14:51;;;;;;;5.30;2.83;;;;;;;;;;5040408;28;20221;-84
2023/07/19 09:17:17;;;;;;;9.88;3.72;;;;;;;;;;5053692;28;20172;-84
2023/07/19 09:19:44;;;;;;;7.88;3.45;;;;;;;;;;5033374;28;20184;-84
2023/07/19 09:22:10;;;;;;;11.90;4.38;;;;;;;;;;5020757;28;20190;-83
2023/07/19 09:24:36;;;;;;;7.15;3.72;;;;;;;;;;5020573;28;20250;-84
2023/07/19 09:27:02;;;;;;;9.20;4.03;;;;;;;;;;5020272;28;20176;-83
2023/07/19 09:29:30;;;;;;;8.43;4.15;;;;;;;;;;5030729;28;20229;-84
2023/07/19 09:32:00;;;;;;;8.70;3.63;;;;;;;;;;5056403;28;20187;-85
2023/07/19 09:34:29;;;;;;;7.95;3.92;;;;;;;;;;5048819;28;20241;-86
2023/07/19 09:36:56;;;;;;;5.32;3.50;;;;;;;;;;5076886;28;20178;-85
2023/07/19 09:39:22;;;;;;;7.57;4.10;;;;;;;;;;5076412;28;20266;-85
2023/07/19 09:41:48;;;;;;;6.07;3.80;;;;;;;;;;5076814;28;20182;-85
2023/07/19 09:44:16;;;;;;;8.55;3.47;;;;;;;;;;5059990;28;20217;-85
2023/07/19 09:46:46;;;;;;;7.32;3.80;;;;;;;;;;5076883;28;20178;-86
2023/07/19 09:49:13;;;;;;;5.80;3.50;;;;;;;;;;5076694;28;20251;-86
2023/07/19 09:51:41;;;;;;;6.18;2.70;;;;;;;;;;5077181;28;20178;-86
2023/07/19 09:54:08;;;;;;;3.35;2.22;;;;;;;;;;5076549;28;20292;-86
2023/07/19 09:56:34;;;;;;;5.95;2.40;;;;;;;;;;5076588;28;20182;-85
2023/07/19 09:59:01;;;;;;;5.15;2.20;;;;;;;;;;5076467;28;20202;-85
2023/07/19 10:01:27;;;;;;;4.95;2.25;;;;;;;;;;5076500;28;20175;-84
2023/07/19 10:03:53;;;;;;;4.93;2.60;;;;;;;;;;5076275;28;20167;-85
2023/07/19 10:06:19;;;;;;;4.47;2.55;;;;;;;;;;5059221;28;20175;-85
2023/07/19 10:08:45;;;;;;;5.20;2.63;;;;;;;;;;5075735;28;20185;-85
2023/07/19 10:11:21;;;;;;;4.63;2.75;;;;;;;;;;5059674;28;20228;-85
2023/07/19 10:13:56;;;;;;;7.15;2.83;;;;;;;;;;5075808;28;20174;-85
2023/07/19 10:16:35;;;;;;;6.82;2.78;;;;;;;;;;5059213;28;20179;-85
2023/07/19 10:19:14;;;;;;;7.05;2.90;;;;;;;;;;5075506;28;20285;-85
2023/07/19 10:22:06;;;;;;;5.88;2.90;;;;;;;;;;5059287;28;20174;-86
2023/07/19 10:24:33;;;;;;;7.10;2.70;;;;;;;;;;5071205;28;20243;-85
2023/07/19 10:27:22;;;;;;;5.13;2.72;;;;;;;;;;5070338;28;20191;-85
2023/07/19 10:29:48;;;;;;;5.10;2.47;;;;;;;;;;5051292;28;20274;-85
2023/07/19 10:32:14;;;;;;;5.47;2.63;;;;;;;;;;5052327;28;20184;-84
2023/07/19 10:34:45;;;;;;;6.50;2.88;;;;;;;;;;5042030;28;20194;-84
2023/07/19 10:37:11;;;;;;;3.95;2.80;;;;;;;;;;5057371;28;20182;-85
2023/07/19 10:39:37;;;;;;;4.25;2.78;;;;;;;;;;5043553;28;20210;-84
2023/07/19 10:42:03;;;;;;;4.70;2.97;;;;;;;;;;5045187;28;20183;-85
2023/07/19 10:44:29;;;;;;;3.92;3.20;;;;;;;;;;5063250;28;20175;-83
2023/07/19 10:46:55;;;;;;;6.32;3.35;;;;;;;;;;5063731;28;20213;-84
2023/07/19 10:49:25;;;;;;;4.18;2.70;;;;;;;;;;5079750;28;20189;-86
2023/07/19 10:51:53;;;;;;;4.28;2.80;;;;;;;;;;5062481;28;20187;-85
2023/07/19 10:54:19;;;;;;;4.03;2.60;;;;;;;;;;5059757;28;20182;-82
2023/07/19 10:56:46;;;;;;;4.97;2.55;;;;;;;;;;5059148;28;20183;-83
2023/07/19 10:59:13;;;;;;;6.18;2.63;;;;;;;;;;5057546;28;20209;-86
2023/07/19 11:01:39;;;;;;;4.65;2.45;;;;;;;;;;5054715;28;20353;-84
2023/07/19 11:04:07;;;;;;;3.35;2.13;;;;;;;;;;5047833;28;20177;-83
2023/07/19 11:06:33;;;;;;;4.28;2.55;;;;;;;;;;5043316;28;20187;-83
2023/07/19 11:09:03;;;;;;;3.97;2.65;;;;;;;;;;5037524;28;20191;-83
2023/07/19 11:11:29;;;;;;;3.58;2.40;;;;;;;;;;5039611;28;20180;-83
2023/07/19 11:13:56;;;;;;;3.40;2.40;;;;;;;;;;5022376;28;20251;-83
2023/07/19 11:16:26;;;;;;;5.38;2.80;;;;;;;;;;5022592;28;20175;-83
2023/07/19 11:18:53;;;;;;;5.88;2.78;;;;;;;;;;5038158;28;20246;-84
2023/07/19 11:21:26;;;;;;;5.38;2.90;;;;;;;;;;5038742;28;20168;-84
2023/07/19 11:23:53;;;;;;;5.25;2.60;;;;;;;;;;5038863;28;20222;-84
2023/07/19 11:26:19;;;;;;;4.72;2.67;;;;;;;;;;5022476;28;20180;-84
2023/07/19 11:28:50;;;;;;;3.53;2.30;;;;;;;;;;5039008;28;20206;-84
2023/07/19 11:31:31;;;;;;;5.05;2.60;;;;;;;;;;5038669;28;20218;-83
2023/07/19 11:34:08;;;;;;;5.18;2.58;;;;;;;;;;5038847;28;20172;-83
2023/07/19 11:36:35;;;;;;;6.38;2.80;;;;;;;;;;5039166;28;20183;-83
2023/07/19 11:39:01;;;;;;;4.15;2.70;;;;;;;;;;5038659;28;20200;-85
2023/07/19 11:41:30;;;;;;;8.35;3.28;;;;;;;;;;5038561;28;20418;-84
2023/07/19 11:43:56;;;;;;;6.75;2.88;;;;;;;;;;5058456;28;20179;-84
2023/07/19 11:46:22;;;;;;;8.73;3.10;;;;;;;;;;5042394;28;20186;-83
2023/07/19 11:48:49;;;;;;;6.03;3.10;;;;;;;;;;5039677;28;20184;-83
2023/07/19 11:51:15;;;;;;;5.30;3.05;;;;;;;;;;5049164;28;20191;-82
2023/07/19 11:53:42;;;;;;;7.35;3.30;;;;;;;;;;5051962;28;20287;-83
2023/07/19 11:56:08;;;;;;;9.48;3.45;;;;;;;;;;5021435;28;20194;-83
2023/07/19 11:58:34;;;;;;;9.20;3.45;;;;;;;;;;5038364;28;20203;-83
2023/07/19 12:01:01;;;;;;;8.05;3.47;;;;;;;;;;5038294;28;20270;-84
2023/07/19 12:03:28;;;;;;;5.80;3.00;;;;;;;;;;5038433;28;20199;-81
2023/07/19 12:05:54;;;;;;;8.13;3.30;;;;;;;;;;5021980;28;20181;-83
2023/07/19 12:08:20;;;;;;;8.02;3.88;;;;;;;;;;5038042;28;20282;-83
2023/07/19 12:10:46;;;;;;;9.00;3.38;;;;;;;;;;5021798;28;20184;-83
2023/07/19 12:13:12;;;;;;;5.22;3.13;;;;;;;;;;5037928;28;20187;-83
2023/07/19 12:15:38;;;;;;;5.20;3.20;;;;;;;;;;5021657;28;20182;-83
2023/07/19 12:18:05;;;;;;;5.72;3.05;;;;;;;;;;5021383;28;20211;-83
2023/07/19 12:20:31;;;;;;;5.50;3.35;;;;;;;;;;5038322;28;20172;-83
2023/07/19 12:22:57;;;;;;;9.40;3.75;;;;;;;;;;5021406;28;20198;-83
2023/07/19 12:25:24;;;;;;;6.88;3.83;;;;;;;;;;5038682;28;20206;-82
2023/07/19 12:27:52;;;;;;;7.75;3.55;;;;;;;;;;5022992;28;20208;-83
2023/07/19 12:30:18;;;;;;;8.93;4.28;;;;;;;;;;5041948;28;20260;-82
2023/07/19 12:32:44;;;;;;;6.70;3.42;;;;;;;;;;5037941;28;20180;-82
2023/07/19 12:35:10;;;;;;;5.93;3.70;;;;;;;;;;5037894;28;20175;-83
2023/07/19 12:37:36;;;;;;;8.38;3.88;;;;;;;;;;5037800;28;20202;-83
2023/07/19 12:40:05;;;;;;;6.47;3.75;;;;;;;;;;5021514;28;20180;-82
2023/07/19 12:42:31;;;;;;;5.72;3.38;;;;;;;;;;5021687;28;20303;-84
2023/07/19 12:44:57;;;;;;;5.03;3.20;;;;;;;;;;5021263;28;20247;-84
2023/07/19 12:47:23;;;;;;;6.93;3.78;;;;;;;;;;5021329;28;20286;-83
2023/07/19 12:49:49;;;;;;;9.43;3.53;;;;;;;;;;5037516;28;20191;-84
2023/07/19 12:52:15;;;;;;;6.20;4.00;;;;;;;;;;5037006;28;20418;-83
2023/07/19 12:54:41;;;;;;;7.15;3.63;;;;;;;;;;5037189;28;20247;-84
2023/07/19 12:57:07;;;;;;;8.52;3.40;;;;;;;;;;5037545;28;20208;-83
2023/07/19 12:59:35;;;;;;;5.57;3.08;;;;;;;;;;5045585;28;20199;-83
2023/07/19 13:02:01;;;;;;;6.28;3.30;;;;;;;;;;5037899;28;20240;-84
2023/07/19 13:04:27;;;;;;;5.32;2.88;;;;;;;;;;5021564;28;20199;-82
2023/07/19 13:06:57;;;;;;;4.95;3.10;;;;;;;;;;5031570;28;20188;-83
2023/07/19 13:09:23;;;;;;;6.38;3.50;;;;;;;;;;5021187;28;20192;-83
2023/07/19 13:11:49;;;;;;;5.60;3.38;;;;;;;;;;5054501;28;20238;-84
2023/07/19 13:14:16;;;;;;;6.82;3.05;;;;;;;;;;5021187;28;20179;-83
2023/07/19 13:16:42;;;;;;;5.45;3.30;;;;;;;;;;5027682;28;20273;-84
2023/07/19 13:19:09;;;;;;;7.75;3.70;;;;;;;;;;5031241;28;20223;-83
2023/07/19 13:21:35;;;;;;;6.63;3.80;;;;;;;;;;5039241;28;20180;-83
2023/07/19 13:24:02;;;;;;;8.48;3.80;;;;;;;;;;5053406;28;20215;-83
2023/07/19 13:26:28;;;;;;;6.65;3.90;;;;;;;;;;5040921;28;20181;-82
2023/07/19 13:28:54;;;;;;;7.43;4.00;;;;;;;;;;5029371;28;20208;-83
2023/07/19 13:31:20;;;;;;;7.22;4.20;;;;;;;;;;5017120;28;20185;-84
2023/07/19 13:33:46;;;;;;;6.10;4.10;;;;;;;;;;5017320;28;20239;-83
2023/07/19 13:36:14;;;;;;;6.13;3.90;;;;;;;;;;5037538;28;20185;-82
2023/07/19 13:38:40;;;;;;;6.47;4.07;;;;;;;;;;5038106;28;20209;-82
2023/07/19 13:41:06;;;;;;;8.23;4.38;;;;;;;;;;5022438;28;20187;-82
2023/07/19 13:43:32;;;;;;;7.18;4.72;;;;;;;;;;5016086;28;20211;-82
2023/07/19 13:45:58;;;;;;;7.28;4.25;;;;;;;;;;5033469;28;20173;-82
2023/07/19 13:48:24;;;;;;;9.93;4.78;;;;;;;;;;5017793;28;20227;-82
2023/07/19 13:50:50;;;;;;;8.75;5.10;;;;;;;;;;5016810;28;20327;-82
2023/07/19 13:53:16;;;;;;;5.68;4.38;;;;;;;;;;5032850;28;20193;-82
2023/07/19 13:55:43;;;;;;;7.70;4.90;;;;;;;;;;5043632;28;20197;-82
2023/07/19 13:58:09;;;;;;;11.98;4.85;;;;;;;;;;5023985;28;20216;-82
2023/07/19 14:00:35;;;;;;;9.50;4.72;;;;;;;;;;5022555;28;20432;-82
2023/07/19 14:03:01;;;;;;;7.32;4.30;;;;;;;;;;5035997;28;20263;-82
2023/07/19 14:05:27;;;;;;;10.52;4.55;;;;;;;;;;5032186;28;20184;-80
2023/07/19 14:07:53;;;;;;;7.88;4.60;;;;;;;;;;5047947;28;20186;-81
2023/07/19 14:10:19;;;;;;;9.27;4.78;;;;;;;;;;5053606;28;20187;-81
2023/07/19 14:12:45;;;;;;;7.55;4.40;;;;;;;;;;5027928;28;20200;-81
2023/07/19 14:15:11;;;;;;;7.75;5.00;;;;;;;;;;5029571;28;20266;-81
2023/07/19 14:17:38;;;;;;;5.88;4.40;;;;;;;;;;5042277;28;20191;-81
2023/07/19 14:20:04;;;;;;;8.45;4.97;;;;;;;;;;5047035;28;20179;-81
2023/07/19 14:22:30;;;;;;;8.63;5.07;;;;;;;;;;5052220;28;20210;-81
2023/07/19 14:24:56;;;;;;;7.53;4.80;;;;;;;;;;5035622;28;20251;-81
2023/07/19 14:27:22;;;;;;;7.93;4.82;;;;;;;;;;5033064;28;20200;-81
2023/07/19 14:29:48;;;;;;;6.70;4.72;;;;;;;;;;5029597;28;20195;-82
2023/07/19 14:32:14;;;;;;;6.93;4.80;;;;;;;;;;5016067;28;20181;-81
2023/07/19 14:34:40;;;;;;;7.25;4.32;;;;;;;;;;5033110;28;20192;-81
2023/07/19 14:37:08;;;;;;;8.23;4.00;;;;;;;;;;5032196;28;20195;-81
2023/07/19 14:39:34;;;;;;;7.05;4.18;;;;;;;;;;5021967;28;20201;-81